sensor_id;sensor_type;location;lat;lon;timestamp;P1;durP1;ratioP1;P2;durP2;ratioP2
30378;SDS011;17168;49.164;9.060;2023-08-06T00:01:00;8.48;;;3.92;;
30378;SDS011;17168;49.164;9.060;2023-08-06T00:03:33;10.63;;;3.97;;
30378;SDS011;17168;49.164;9.060;2023-08-06T00:06:05;9.07;;;4.43;;
30378;SDS011;17168;49.164;9.060;2023-08-06T00:08:37;5.95;;;3.53;;
30378;SDS011;17168;49.164;9.060;2023-08-06T00:11:10;7.38;;;3.80;;
30378;SDS011;17168;49.164;9.060;2023-08-06T00:13:44;10.73;;;4.47;;
30378;SDS011;17168;49.164;9.060;2023-08-06T00:16:16;9.05;;;4.45;;
30378;SDS011;17168;49.164;9.060;2023-08-06T00:18:49;8.10;;;3.63;;
30378;SDS011;17168;49.164;9.060;2023-08-06T00:21:21;9.27;;;3.92;;
30378;SDS011;17168;49.164;9.060;2023-08-06T00:23:53;7.88;;;3.92;;
30378;SDS011;17168;49.164;9.060;2023-08-06T00:26:25;7.82;;;3.72;;
30378;SDS011;17168;49.164;9.060;2023-08-06T00:29:00;11.45;;;4.15;;
30378;SDS011;17168;49.164;9.060;2023-08-06T00:31:32;9.63;;;4.32;;
30378;SDS011;17168;49.164;9.060;2023-08-06T00:34:05;8.00;;;4.05;;
30378;SDS011;17168;49.164;9.060;2023-08-06T00:36:39;6.85;;;3.80;;
30378;SDS011;17168;49.164;9.060;2023-08-06T00:39:12;5.95;;;3.53;;
30378;SDS011;17168;49.164;9.060;2023-08-06T00:41:44;10.32;;;4.65;;
30378;SDS011;17168;49.164;9.060;2023-08-06T00:44:19;9.70;;;4.05;;
30378;SDS011;17168;49.164;9.060;2023-08-06T00:46:51;5.40;;;3.53;;
30378;SDS011;17168;49.164;9.060;2023-08-06T00:49:23;8.60;;;4.45;;
30378;SDS011;17168;49.164;9.060;2023-08-06T00:51:56;10.50;;;4.65;;
30378;SDS011;17168;49.164;9.060;2023-08-06T00:54:29;11.52;;;4.90;;
30378;SDS011;17168;49.164;9.060;2023-08-06T00:57:02;14.43;;;5.47;;
30378;SDS011;17168;49.164;9.060;2023-08-06T00:59:38;13.45;;;5.95;;
30378;SDS011;17168;49.164;9.060;2023-08-06T01:02:11;8.60;;;4.80;;
30378;SDS011;17168;49.164;9.060;2023-08-06T01:04:43;14.90;;;5.60;;
30378;SDS011;17168;49.164;9.060;2023-08-06T01:07:19;7.65;;;4.18;;
30378;SDS011;17168;49.164;9.060;2023-08-06T01:10:05;11.82;;;4.60;;
30378;SDS011;17168;49.164;9.060;2023-08-06T01:12:51;7.00;;;3.47;;
30378;SDS011;17168;49.164;9.060;2023-08-06T01:15:41;9.63;;;4.80;;
30378;SDS011;17168;49.164;9.060;2023-08-06T01:18:17;6.43;;;4.13;;
30378;SDS011;17168;49.164;9.060;2023-08-06T01:20:52;13.55;;;5.22;;
30378;SDS011;17168;49.164;9.060;2023-08-06T01:23:24;9.40;;;4.93;;
30378;SDS011;17168;49.164;9.060;2023-08-06T01:25:58;12.18;;;5.10;;
30378;SDS011;17168;49.164;9.060;2023-08-06T01:28:39;9.32;;;4.85;;
30378;SDS011;17168;49.164;9.060;2023-08-06T01:31:17;8.85;;;4.68;;
30378;SDS011;17168;49.164;9.060;2023-08-06T01:33:53;10.07;;;5.00;;
30378;SDS011;17168;49.164;9.060;2023-08-06T01:36:31;9.20;;;5.15;;
30378;SDS011;17168;49.164;9.060;2023-08-06T01:39:04;13.65;;;5.80;;
30378;SDS011;17168;49.164;9.060;2023-08-06T01:41:37;18.67;;;7.30;;
30378;SDS011;17168;49.164;9.060;2023-08-06T01:44:09;15.23;;;6.68;;
30378;SDS011;17168;49.164;9.060;2023-08-06T01:46:41;21.25;;;8.13;;
30378;SDS011;17168;49.164;9.060;2023-08-06T01:49:13;13.32;;;6.47;;
30378;SDS011;17168;49.164;9.060;2023-08-06T01:51:48;15.25;;;6.40;;
30378;SDS011;17168;49.164;9.060;2023-08-06T01:54:21;9.80;;;5.28;;
30378;SDS011;17168;49.164;9.060;2023-08-06T01:56:54;11.45;;;6.35;;
30378;SDS011;17168;49.164;9.060;2023-08-06T01:59:26;15.95;;;6.15;;
30378;SDS011;17168;49.164;9.060;2023-08-06T02:01:58;14.32;;;6.60;;
30378;SDS011;17168;49.164;9.060;2023-08-06T02:04:30;12.35;;;6.53;;
30378;SDS011;17168;49.164;9.060;2023-08-06T02:07:05;8.98;;;5.28;;
30378;SDS011;17168;49.164;9.060;2023-08-06T02:09:37;16.63;;;6.38;;
30378;SDS011;17168;49.164;9.060;2023-08-06T02:12:10;12.98;;;6.55;;
30378;SDS011;17168;49.164;9.060;2023-08-06T02:14:43;11.95;;;6.70;;
30378;SDS011;17168;49.164;9.060;2023-08-06T02:17:15;17.17;;;6.93;;
30378;SDS011;17168;49.164;9.060;2023-08-06T02:19:47;10.18;;;6.03;;
30378;SDS011;17168;49.164;9.060;2023-08-06T02:22:22;10.60;;;6.45;;
30378;SDS011;17168;49.164;9.060;2023-08-06T02:24:54;14.65;;;6.57;;
30378;SDS011;17168;49.164;9.060;2023-08-06T02:27:27;20.38;;;7.70;;
30378;SDS011;17168;49.164;9.060;2023-08-06T02:29:59;11.43;;;6.50;;
30378;SDS011;17168;49.164;9.060;2023-08-06T02:32:31;12.43;;;6.47;;
30378;SDS011;17168;49.164;9.060;2023-08-06T02:35:04;10.65;;;6.07;;
30378;SDS011;17168;49.164;9.060;2023-08-06T02:37:40;9.70;;;6.03;;
30378;SDS011;17168;49.164;9.060;2023-08-06T02:40:12;10.48;;;5.47;;
30378;SDS011;17168;49.164;9.060;2023-08-06T02:42:44;8.32;;;4.47;;
30378;SDS011;17168;49.164;9.060;2023-08-06T02:45:16;8.02;;;4.60;;
30378;SDS011;17168;49.164;9.060;2023-08-06T02:47:49;9.93;;;4.97;;
30378;SDS011;17168;49.164;9.060;2023-08-06T02:50:22;7.35;;;4.13;;
30378;SDS011;17168;49.164;9.060;2023-08-06T02:52:57;8.82;;;5.00;;
30378;SDS011;17168;49.164;9.060;2023-08-06T02:55:29;13.38;;;6.07;;
30378;SDS011;17168;49.164;9.060;2023-08-06T02:58:02;8.73;;;5.07;;
30378;SDS011;17168;49.164;9.060;2023-08-06T03:00:34;11.15;;;6.10;;
30378;SDS011;17168;49.164;9.060;2023-08-06T03:03:06;6.72;;;4.43;;
30378;SDS011;17168;49.164;9.060;2023-08-06T03:05:38;10.27;;;5.40;;
30378;SDS011;17168;49.164;9.060;2023-08-06T03:08:13;9.93;;;4.85;;
30378;SDS011;17168;49.164;9.060;2023-08-06T03:10:45;8.32;;;3.92;;
30378;SDS011;17168;49.164;9.060;2023-08-06T03:13:18;8.88;;;5.20;;
30378;SDS011;17168;49.164;9.060;2023-08-06T03:15:53;10.80;;;5.50;;
30378;SDS011;17168;49.164;9.060;2023-08-06T03:18:25;6.47;;;3.95;;
30378;SDS011;17168;49.164;9.060;2023-08-06T03:20:58;7.70;;;4.22;;
30378;SDS011;17168;49.164;9.060;2023-08-06T03:23:33;7.78;;;4.28;;
30378;SDS011;17168;49.164;9.060;2023-08-06T03:26:05;12.57;;;4.75;;
30378;SDS011;17168;49.164;9.060;2023-08-06T03:28:37;9.10;;;5.65;;
30378;SDS011;17168;49.164;9.060;2023-08-06T03:31:09;10.75;;;4.35;;
30378;SDS011;17168;49.164;9.060;2023-08-06T03:33:41;7.32;;;4.35;;
30378;SDS011;17168;49.164;9.060;2023-08-06T03:36:13;7.18;;;3.83;;
30378;SDS011;17168;49.164;9.060;2023-08-06T03:38:48;6.20;;;3.75;;
30378;SDS011;17168;49.164;9.060;2023-08-06T03:41:20;7.43;;;3.33;;
30378;SDS011;17168;49.164;9.060;2023-08-06T03:43:53;5.95;;;2.97;;
30378;SDS011;17168;49.164;9.060;2023-08-06T03:46:25;6.55;;;4.20;;
30378;SDS011;17168;49.164;9.060;2023-08-06T03:48:57;5.07;;;1.00;;
30378;SDS011;17168;49.164;9.060;2023-08-06T03:51:30;2.72;;;1.50;;
30378;SDS011;17168;49.164;9.060;2023-08-06T03:54:04;3.38;;;1.38;;
30378;SDS011;17168;49.164;9.060;2023-08-06T03:56:36;3.00;;;1.63;;
30378;SDS011;17168;49.164;9.060;2023-08-06T03:59:09;1.60;;;0.60;;
30378;SDS011;17168;49.164;9.060;2023-08-06T04:01:41;2.13;;;0.85;;
30378;SDS011;17168;49.164;9.060;2023-08-06T04:04:13;2.53;;;0.70;;
30378;SDS011;17168;49.164;9.060;2023-08-06T04:06:45;1.95;;;0.47;;
30378;SDS011;17168;49.164;9.060;2023-08-06T04:09:20;4.13;;;0.70;;
30378;SDS011;17168;49.164;9.060;2023-08-06T04:11:52;1.77;;;0.40;;
30378;SDS011;17168;49.164;9.060;2023-08-06T04:14:25;2.60;;;1.15;;
30378;SDS011;17168;49.164;9.060;2023-08-06T04:16:58;3.03;;;1.23;;
30378;SDS011;17168;49.164;9.060;2023-08-06T04:19:30;3.85;;;0.75;;
30378;SDS011;17168;49.164;9.060;2023-08-06T04:22:02;1.25;;;0.63;;
30378;SDS011;17168;49.164;9.060;2023-08-06T04:24:37;3.63;;;0.93;;
30378;SDS011;17168;49.164;9.060;2023-08-06T04:27:10;1.73;;;0.38;;
30378;SDS011;17168;49.164;9.060;2023-08-06T04:29:43;2.35;;;0.50;;
30378;SDS011;17168;49.164;9.060;2023-08-06T04:32:15;3.28;;;0.85;;
30378;SDS011;17168;49.164;9.060;2023-08-06T04:34:47;1.38;;;0.82;;
30378;SDS011;17168;49.164;9.060;2023-08-06T04:37:19;4.70;;;0.85;;
30378;SDS011;17168;49.164;9.060;2023-08-06T04:39:54;2.50;;;0.60;;
30378;SDS011;17168;49.164;9.060;2023-08-06T04:42:26;1.35;;;0.22;;
30378;SDS011;17168;49.164;9.060;2023-08-06T04:44:58;1.95;;;0.30;;
30378;SDS011;17168;49.164;9.060;2023-08-06T04:47:33;3.92;;;0.73;;
30378;SDS011;17168;49.164;9.060;2023-08-06T04:50:05;4.00;;;0.50;;
30378;SDS011;17168;49.164;9.060;2023-08-06T04:52:38;0.68;;;0.60;;
30378;SDS011;17168;49.164;9.060;2023-08-06T04:55:13;0.93;;;0.20;;
30378;SDS011;17168;49.164;9.060;2023-08-06T04:57:45;4.82;;;0.40;;
30378;SDS011;17168;49.164;9.060;2023-08-06T05:00:17;1.38;;;0.50;;
30378;SDS011;17168;49.164;9.060;2023-08-06T05:02:49;1.42;;;0.40;;
30378;SDS011;17168;49.164;9.060;2023-08-06T05:05:22;1.10;;;0.10;;
30378;SDS011;17168;49.164;9.060;2023-08-06T05:07:55;1.60;;;0.38;;
30378;SDS011;17168;49.164;9.060;2023-08-06T05:10:31;0.68;;;0.15;;
30378;SDS011;17168;49.164;9.060;2023-08-06T05:13:03;1.35;;;0.80;;
30378;SDS011;17168;49.164;9.060;2023-08-06T05:15:35;1.52;;;0.68;;
30378;SDS011;17168;49.164;9.060;2023-08-06T05:18:07;2.78;;;0.25;;
30378;SDS011;17168;49.164;9.060;2023-08-06T05:20:40;1.58;;;0.20;;
30378;SDS011;17168;49.164;9.060;2023-08-06T05:23:14;3.08;;;0.40;;
30378;SDS011;17168;49.164;9.060;2023-08-06T05:25:49;0.95;;;0.30;;
30378;SDS011;17168;49.164;9.060;2023-08-06T05:28:21;2.95;;;0.55;;
30378;SDS011;17168;49.164;9.060;2023-08-06T05:30:53;3.38;;;0.22;;
30378;SDS011;17168;49.164;9.060;2023-08-06T05:33:26;3.95;;;0.73;;
30378;SDS011;17168;49.164;9.060;2023-08-06T05:35:58;1.33;;;0.20;;
30378;SDS011;17168;49.164;9.060;2023-08-06T05:38:30;3.17;;;0.20;;
30378;SDS011;17168;49.164;9.060;2023-08-06T05:41:05;2.65;;;0.77;;
30378;SDS011;17168;49.164;9.060;2023-08-06T05:43:37;2.55;;;0.13;;
30378;SDS011;17168;49.164;9.060;2023-08-06T05:46:09;7.20;;;0.68;;
30378;SDS011;17168;49.164;9.060;2023-08-06T05:48:41;1.77;;;0.73;;
30378;SDS011;17168;49.164;9.060;2023-08-06T05:51:13;3.13;;;0.40;;
30378;SDS011;17168;49.164;9.060;2023-08-06T05:53:47;0.82;;;0.30;;
30378;SDS011;17168;49.164;9.060;2023-08-06T05:56:24;1.95;;;0.20;;
30378;SDS011;17168;49.164;9.060;2023-08-06T05:58:56;1.30;;;0.20;;
30378;SDS011;17168;49.164;9.060;2023-08-06T06:01:28;2.63;;;0.20;;
30378;SDS011;17168;49.164;9.060;2023-08-06T06:04:00;0.85;;;0.28;;
30378;SDS011;17168;49.164;9.060;2023-08-06T06:06:33;0.85;;;0.10;;
30378;SDS011;17168;49.164;9.060;2023-08-06T06:09:05;1.23;;;0.20;;
30378;SDS011;17168;49.164;9.060;2023-08-06T06:11:40;2.15;;;0.32;;
30378;SDS011;17168;49.164;9.060;2023-08-06T06:14:12;0.45;;;0.20;;
30378;SDS011;17168;49.164;9.060;2023-08-06T06:16:44;0.30;;;0.10;;
30378;SDS011;17168;49.164;9.060;2023-08-06T06:19:16;0.15;;;0.03;;
30378;SDS011;17168;49.164;9.060;2023-08-06T06:21:49;1.00;;;0.15;;
30378;SDS011;17168;49.164;9.060;2023-08-06T06:24:21;1.35;;;0.10;;
30378;SDS011;17168;49.164;9.060;2023-08-06T06:26:56;2.35;;;0.17;;
30378;SDS011;17168;49.164;9.060;2023-08-06T06:29:28;1.98;;;0.00;;
30378;SDS011;17168;49.164;9.060;2023-08-06T06:32:01;1.13;;;0.20;;
30378;SDS011;17168;49.164;9.060;2023-08-06T06:34:33;0.50;;;0.10;;
30378;SDS011;17168;49.164;9.060;2023-08-06T06:37:06;0.70;;;0.10;;
30378;SDS011;17168;49.164;9.060;2023-08-06T06:39:38;1.85;;;0.10;;
30378;SDS011;17168;49.164;9.060;2023-08-06T06:42:13;3.03;;;0.35;;
30378;SDS011;17168;49.164;9.060;2023-08-06T06:44:46;0.40;;;0.32;;
30378;SDS011;17168;49.164;9.060;2023-08-06T06:47:18;1.50;;;0.08;;
30378;SDS011;17168;49.164;9.060;2023-08-06T06:49:54;1.38;;;0.13;;
30378;SDS011;17168;49.164;9.060;2023-08-06T06:52:26;0.57;;;0.00;;
30378;SDS011;17168;49.164;9.060;2023-08-06T06:54:58;2.00;;;0.10;;
30378;SDS011;17168;49.164;9.060;2023-08-06T06:57:33;0.28;;;0.13;;
30378;SDS011;17168;49.164;9.060;2023-08-06T07:00:06;0.32;;;0.05;;
30378;SDS011;17168;49.164;9.060;2023-08-06T07:02:38;0.40;;;0.10;;
30378;SDS011;17168;49.164;9.060;2023-08-06T07:05:11;0.47;;;0.00;;
30378;SDS011;17168;49.164;9.060;2023-08-06T07:07:43;2.08;;;0.05;;
30378;SDS011;17168;49.164;9.060;2023-08-06T07:10:15;0.10;;;0.00;;
30378;SDS011;17168;49.164;9.060;2023-08-06T07:12:50;0.05;;;0.00;;
30378;SDS011;17168;49.164;9.060;2023-08-06T07:15:22;0.10;;;0.03;;
30378;SDS011;17168;49.164;9.060;2023-08-06T07:17:54;0.05;;;0.03;;
30378;SDS011;17168;49.164;9.060;2023-08-06T07:20:27;0.77;;;0.13;;
30378;SDS011;17168;49.164;9.060;2023-08-06T07:23:03;0.90;;;0.00;;
30378;SDS011;17168;49.164;9.060;2023-08-06T07:25:38;1.42;;;0.00;;
30378;SDS011;17168;49.164;9.060;2023-08-06T07:28:13;0.93;;;0.13;;
30378;SDS011;17168;49.164;9.060;2023-08-06T07:30:48;0.98;;;0.00;;
30378;SDS011;17168;49.164;9.060;2023-08-06T07:33:21;1.27;;;0.40;;
30378;SDS011;17168;49.164;9.060;2023-08-06T07:35:53;0.52;;;0.10;;
30378;SDS011;17168;49.164;9.060;2023-08-06T07:38:25;1.35;;;0.00;;
30378;SDS011;17168;49.164;9.060;2023-08-06T07:40:57;0.10;;;0.05;;
30378;SDS011;17168;49.164;9.060;2023-08-06T07:43:35;0.70;;;0.10;;
30378;SDS011;17168;49.164;9.060;2023-08-06T07:46:07;0.80;;;0.30;;
30378;SDS011;17168;49.164;9.060;2023-08-06T07:48:40;0.10;;;0.03;;
30378;SDS011;17168;49.164;9.060;2023-08-06T07:51:13;0.10;;;0.00;;
30378;SDS011;17168;49.164;9.060;2023-08-06T07:53:46;0.52;;;0.10;;
30378;SDS011;17168;49.164;9.060;2023-08-06T07:56:18;0.00;;;0.00;;
30378;SDS011;17168;49.164;9.060;2023-08-06T07:58:53;0.03;;;0.03;;
30378;SDS011;17168;49.164;9.060;2023-08-06T08:01:25;0.00;;;0.00;;
30378;SDS011;17168;49.164;9.060;2023-08-06T08:03:57;1.27;;;0.10;;
30378;SDS011;17168;49.164;9.060;2023-08-06T08:06:29;0.55;;;0.10;;
30378;SDS011;17168;49.164;9.060;2023-08-06T08:09:02;0.38;;;0.13;;
30378;SDS011;17168;49.164;9.060;2023-08-06T08:11:34;0.40;;;0.40;;
30378;SDS011;17168;49.164;9.060;2023-08-06T08:14:09;2.40;;;1.10;;
30378;SDS011;17168;49.164;9.060;2023-08-06T08:16:41;1.10;;;0.20;;
30378;SDS011;17168;49.164;9.060;2023-08-06T08:19:13;0.13;;;0.13;;
30378;SDS011;17168;49.164;9.060;2023-08-06T08:21:46;0.30;;;0.30;;
30378;SDS011;17168;49.164;9.060;2023-08-06T08:24:18;0.35;;;0.13;;
30378;SDS011;17168;49.164;9.060;2023-08-06T08:26:51;0.90;;;0.22;;
30378;SDS011;17168;49.164;9.060;2023-08-06T08:29:26;0.20;;;0.10;;
30378;SDS011;17168;49.164;9.060;2023-08-06T08:31:58;0.20;;;0.13;;
30378;SDS011;17168;49.164;9.060;2023-08-06T08:34:48;0.40;;;0.13;;
30378;SDS011;17168;49.164;9.060;2023-08-06T08:37:26;0.08;;;0.00;;
30378;SDS011;17168;49.164;9.060;2023-08-06T08:40:00;0.10;;;0.00;;
30378;SDS011;17168;49.164;9.060;2023-08-06T08:42:32;0.20;;;0.10;;
30378;SDS011;17168;49.164;9.060;2023-08-06T08:45:10;0.20;;;0.08;;
30378;SDS011;17168;49.164;9.060;2023-08-06T08:47:45;74.07;;;27.25;;
30378;SDS011;17168;49.164;9.060;2023-08-06T08:50:26;1.13;;;0.10;;
30378;SDS011;17168;49.164;9.060;2023-08-06T08:52:58;0.10;;;0.03;;
30378;SDS011;17168;49.164;9.060;2023-08-06T08:55:36;0.00;;;0.00;;
30378;SDS011;17168;49.164;9.060;2023-08-06T08:58:10;0.13;;;0.03;;
30378;SDS011;17168;49.164;9.060;2023-08-06T09:00:45;0.10;;;0.00;;
30378;SDS011;17168;49.164;9.060;2023-08-06T09:03:20;0.00;;;0.00;;
30378;SDS011;17168;49.164;9.060;2023-08-06T09:05:53;0.08;;;0.08;;
30378;SDS011;17168;49.164;9.060;2023-08-06T09:08:29;0.00;;;0.00;;
30378;SDS011;17168;49.164;9.060;2023-08-06T09:11:05;0.40;;;0.03;;
30378;SDS011;17168;49.164;9.060;2023-08-06T09:13:42;0.00;;;0.00;;
30378;SDS011;17168;49.164;9.060;2023-08-06T09:16:17;0.03;;;0.03;;
30378;SDS011;17168;49.164;9.060;2023-08-06T09:18:49;0.20;;;0.20;;
30378;SDS011;17168;49.164;9.060;2023-08-06T09:21:21;0.32;;;0.00;;
30378;SDS011;17168;49.164;9.060;2023-08-06T09:23:53;0.10;;;0.10;;
30378;SDS011;17168;49.164;9.060;2023-08-06T09:26:32;0.00;;;0.00;;
30378;SDS011;17168;49.164;9.060;2023-08-06T09:29:05;0.10;;;0.00;;
30378;SDS011;17168;49.164;9.060;2023-08-06T09:31:45;1.00;;;0.10;;
30378;SDS011;17168;49.164;9.060;2023-08-06T09:34:18;35.08;;;10.48;;
30378;SDS011;17168;49.164;9.060;2023-08-06T09:36:52;0.10;;;0.00;;
30378;SDS011;17168;49.164;9.060;2023-08-06T09:39:28;0.30;;;0.13;;
30378;SDS011;17168;49.164;9.060;2023-08-06T09:42:01;0.00;;;0.00;;
30378;SDS011;17168;49.164;9.060;2023-08-06T09:44:34;0.13;;;0.03;;
30378;SDS011;17168;49.164;9.060;2023-08-06T09:47:09;0.13;;;0.10;;
30378;SDS011;17168;49.164;9.060;2023-08-06T09:49:42;0.60;;;0.00;;
30378;SDS011;17168;49.164;9.060;2023-08-06T09:52:14;1.17;;;0.10;;
30378;SDS011;17168;49.164;9.060;2023-08-06T09:54:49;0.20;;;0.00;;
30378;SDS011;17168;49.164;9.060;2023-08-06T09:57:23;0.17;;;0.10;;
30378;SDS011;17168;49.164;9.060;2023-08-06T09:59:57;0.93;;;0.03;;
30378;SDS011;17168;49.164;9.060;2023-08-06T10:02:32;0.93;;;0.10;;
30378;SDS011;17168;49.164;9.060;2023-08-06T10:05:09;0.10;;;0.08;;
30378;SDS011;17168;49.164;9.060;2023-08-06T10:07:41;0.17;;;0.10;;
30378;SDS011;17168;49.164;9.060;2023-08-06T10:10:14;0.20;;;0.00;;
30378;SDS011;17168;49.164;9.060;2023-08-06T10:12:48;0.00;;;0.00;;
30378;SDS011;17168;49.164;9.060;2023-08-06T10:15:22;0.10;;;0.00;;
30378;SDS011;17168;49.164;9.060;2023-08-06T10:18:00;0.00;;;0.00;;
30378;SDS011;17168;49.164;9.060;2023-08-06T10:20:34;0.20;;;0.00;;
30378;SDS011;17168;49.164;9.060;2023-08-06T10:23:09;0.43;;;0.00;;
30378;SDS011;17168;49.164;9.060;2023-08-06T10:28:34;0.40;;;0.03;;
30378;SDS011;17168;49.164;9.060;2023-08-06T10:31:08;0.20;;;0.00;;
30378;SDS011;17168;49.164;9.060;2023-08-06T10:33:44;0.20;;;0.00;;
30378;SDS011;17168;49.164;9.060;2023-08-06T10:36:17;0.43;;;0.00;;
30378;SDS011;17168;49.164;9.060;2023-08-06T10:38:50;0.00;;;0.00;;
30378;SDS011;17168;49.164;9.060;2023-08-06T10:41:23;0.47;;;0.10;;
30378;SDS011;17168;49.164;9.060;2023-08-06T10:44:06;0.00;;;0.00;;
30378;SDS011;17168;49.164;9.060;2023-08-06T10:46:39;0.30;;;0.20;;
30378;SDS011;17168;49.164;9.060;2023-08-06T10:49:15;0.10;;;0.00;;
30378;SDS011;17168;49.164;9.060;2023-08-06T10:51:50;0.28;;;0.10;;
30378;SDS011;17168;49.164;9.060;2023-08-06T10:54:23;2.67;;;0.10;;
30378;SDS011;17168;49.164;9.060;2023-08-06T10:56:55;0.00;;;0.00;;
30378;SDS011;17168;49.164;9.060;2023-08-06T10:59:27;0.10;;;0.03;;
30378;SDS011;17168;49.164;9.060;2023-08-06T11:01:59;0.32;;;0.10;;
30378;SDS011;17168;49.164;9.060;2023-08-06T11:04:35;0.65;;;0.03;;
30378;SDS011;17168;49.164;9.060;2023-08-06T11:07:07;0.20;;;0.17;;
30378;SDS011;17168;49.164;9.060;2023-08-06T11:09:40;0.65;;;0.13;;
30378;SDS011;17168;49.164;9.060;2023-08-06T11:12:12;0.47;;;0.25;;
30378;SDS011;17168;49.164;9.060;2023-08-06T11:14:50;1.02;;;0.13;;
30378;SDS011;17168;49.164;9.060;2023-08-06T11:17:22;0.80;;;0.22;;
30378;SDS011;17168;49.164;9.060;2023-08-06T11:19:58;0.22;;;0.22;;
30378;SDS011;17168;49.164;9.060;2023-08-06T11:22:31;1.58;;;0.20;;
30378;SDS011;17168;49.164;9.060;2023-08-06T11:25:04;0.55;;;0.30;;
30378;SDS011;17168;49.164;9.060;2023-08-06T11:27:38;0.77;;;0.20;;
30378;SDS011;17168;49.164;9.060;2023-08-06T11:30:11;1.77;;;0.20;;
30378;SDS011;17168;49.164;9.060;2023-08-06T11:32:46;0.75;;;0.40;;
30378;SDS011;17168;49.164;9.060;2023-08-06T11:35:22;2.38;;;0.82;;
30378;SDS011;17168;49.164;9.060;2023-08-06T11:37:54;3.13;;;0.50;;
30378;SDS011;17168;49.164;9.060;2023-08-06T11:40:26;1.20;;;0.43;;
30378;SDS011;17168;49.164;9.060;2023-08-06T11:42:58;0.80;;;0.30;;
30378;SDS011;17168;49.164;9.060;2023-08-06T11:45:31;1.15;;;0.10;;
30378;SDS011;17168;49.164;9.060;2023-08-06T11:48:06;0.85;;;0.40;;
30378;SDS011;17168;49.164;9.060;2023-08-06T11:50:42;2.53;;;0.30;;
30378;SDS011;17168;49.164;9.060;2023-08-06T11:53:15;1.45;;;0.75;;
30378;SDS011;17168;49.164;9.060;2023-08-06T11:55:47;0.75;;;0.45;;
30378;SDS011;17168;49.164;9.060;2023-08-06T11:58:19;0.88;;;0.28;;
30378;SDS011;17168;49.164;9.060;2023-08-06T12:00:51;2.83;;;0.90;;
30378;SDS011;17168;49.164;9.060;2023-08-06T12:03:23;1.30;;;0.43;;
30378;SDS011;17168;49.164;9.060;2023-08-06T12:06:01;4.30;;;0.95;;
30378;SDS011;17168;49.164;9.060;2023-08-06T12:08:33;2.58;;;1.02;;
30378;SDS011;17168;49.164;9.060;2023-08-06T12:11:06;2.72;;;0.40;;
30378;SDS011;17168;49.164;9.060;2023-08-06T12:13:38;1.77;;;0.90;;
30378;SDS011;17168;49.164;9.060;2023-08-06T12:16:10;4.65;;;1.65;;
30378;SDS011;17168;49.164;9.060;2023-08-06T12:18:42;2.22;;;0.80;;
30378;SDS011;17168;49.164;9.060;2023-08-06T12:21:17;1.33;;;0.85;;
30378;SDS011;17168;49.164;9.060;2023-08-06T12:23:49;3.75;;;1.17;;
30378;SDS011;17168;49.164;9.060;2023-08-06T12:26:21;2.20;;;0.85;;
30378;SDS011;17168;49.164;9.060;2023-08-06T12:28:53;4.35;;;1.60;;
30378;SDS011;17168;49.164;9.060;2023-08-06T12:31:26;1.52;;;0.88;;
30378;SDS011;17168;49.164;9.060;2023-08-06T12:33:58;1.20;;;0.55;;
30378;SDS011;17168;49.164;9.060;2023-08-06T12:36:36;2.55;;;1.38;;
30378;SDS011;17168;49.164;9.060;2023-08-06T12:39:08;4.53;;;2.22;;
30378;SDS011;17168;49.164;9.060;2023-08-06T12:41:41;1.88;;;0.65;;
30378;SDS011;17168;49.164;9.060;2023-08-06T12:44:15;2.88;;;1.67;;
30378;SDS011;17168;49.164;9.060;2023-08-06T12:46:47;2.45;;;1.23;;
30378;SDS011;17168;49.164;9.060;2023-08-06T12:49:19;3.15;;;1.13;;
30378;SDS011;17168;49.164;9.060;2023-08-06T12:51:58;5.68;;;1.83;;
30378;SDS011;17168;49.164;9.060;2023-08-06T12:54:33;3.42;;;1.52;;
30378;SDS011;17168;49.164;9.060;2023-08-06T12:57:08;2.97;;;1.33;;
30378;SDS011;17168;49.164;9.060;2023-08-06T12:59:43;3.92;;;1.13;;
30378;SDS011;17168;49.164;9.060;2023-08-06T13:02:15;2.38;;;1.15;;
30378;SDS011;17168;49.164;9.060;2023-08-06T13:04:47;2.58;;;1.00;;
30378;SDS011;17168;49.164;9.060;2023-08-06T13:07:22;4.18;;;1.20;;
30378;SDS011;17168;49.164;9.060;2023-08-06T13:09:54;4.65;;;1.27;;
30378;SDS011;17168;49.164;9.060;2023-08-06T13:12:26;4.15;;;1.80;;
30378;SDS011;17168;49.164;9.060;2023-08-06T13:14:58;2.00;;;1.10;;
30378;SDS011;17168;49.164;9.060;2023-08-06T13:17:31;3.42;;;1.52;;
30378;SDS011;17168;49.164;9.060;2023-08-06T13:20:03;2.42;;;1.25;;
30378;SDS011;17168;49.164;9.060;2023-08-06T13:22:40;6.35;;;1.52;;
30378;SDS011;17168;49.164;9.060;2023-08-06T13:25:12;7.22;;;2.55;;
30378;SDS011;17168;49.164;9.060;2023-08-06T13:27:46;4.35;;;1.70;;
30378;SDS011;17168;49.164;9.060;2023-08-06T13:30:19;3.50;;;1.42;;
30378;SDS011;17168;49.164;9.060;2023-08-06T13:32:51;2.92;;;1.27;;
30378;SDS011;17168;49.164;9.060;2023-08-06T13:35:24;1.50;;;1.10;;
30378;SDS011;17168;49.164;9.060;2023-08-06T13:37:58;2.83;;;1.17;;
30378;SDS011;17168;49.164;9.060;2023-08-06T13:40:31;5.28;;;1.98;;
30378;SDS011;17168;49.164;9.060;2023-08-06T13:43:04;1.50;;;0.75;;
30378;SDS011;17168;49.164;9.060;2023-08-06T13:45:36;5.00;;;1.23;;
30378;SDS011;17168;49.164;9.060;2023-08-06T13:48:09;4.68;;;1.30;;
30378;SDS011;17168;49.164;9.060;2023-08-06T13:50:42;1.83;;;1.00;;
30378;SDS011;17168;49.164;9.060;2023-08-06T13:53:16;2.53;;;0.85;;
30378;SDS011;17168;49.164;9.060;2023-08-06T13:55:49;1.23;;;0.47;;
30378;SDS011;17168;49.164;9.060;2023-08-06T13:58:21;3.90;;;1.30;;
30378;SDS011;17168;49.164;9.060;2023-08-06T14:00:53;2.47;;;0.68;;
30378;SDS011;17168;49.164;9.060;2023-08-06T14:03:26;1.08;;;0.30;;
30378;SDS011;17168;49.164;9.060;2023-08-06T14:05:58;3.35;;;0.35;;
30378;SDS011;17168;49.164;9.060;2023-08-06T14:08:33;1.20;;;0.32;;
30378;SDS011;17168;49.164;9.060;2023-08-06T14:11:05;1.15;;;0.32;;
30378;SDS011;17168;49.164;9.060;2023-08-06T14:13:38;2.05;;;0.45;;
30378;SDS011;17168;49.164;9.060;2023-08-06T14:16:10;1.00;;;0.40;;
30378;SDS011;17168;49.164;9.060;2023-08-06T14:18:42;1.42;;;0.30;;
30378;SDS011;17168;49.164;9.060;2023-08-06T14:21:16;4.05;;;0.40;;
30378;SDS011;17168;49.164;9.060;2023-08-06T14:23:51;0.52;;;0.17;;
30378;SDS011;17168;49.164;9.060;2023-08-06T14:26:23;0.98;;;0.28;;
30378;SDS011;17168;49.164;9.060;2023-08-06T14:28:55;1.30;;;0.52;;
30378;SDS011;17168;49.164;9.060;2023-08-06T14:31:27;1.30;;;0.45;;
30378;SDS011;17168;49.164;9.060;2023-08-06T14:33:59;1.58;;;0.30;;
30378;SDS011;17168;49.164;9.060;2023-08-06T14:36:32;1.63;;;0.45;;
30378;SDS011;17168;49.164;9.060;2023-08-06T14:39:06;0.63;;;0.20;;
30378;SDS011;17168;49.164;9.060;2023-08-06T14:41:39;2.53;;;0.70;;
30378;SDS011;17168;49.164;9.060;2023-08-06T14:44:11;4.68;;;0.22;;
30378;SDS011;17168;49.164;9.060;2023-08-06T14:46:43;2.75;;;0.32;;
30378;SDS011;17168;49.164;9.060;2023-08-06T14:49:15;0.75;;;0.20;;
30378;SDS011;17168;49.164;9.060;2023-08-06T14:51:47;1.58;;;0.30;;
30378;SDS011;17168;49.164;9.060;2023-08-06T14:54:22;1.20;;;0.57;;
30378;SDS011;17168;49.164;9.060;2023-08-06T14:56:54;0.93;;;0.22;;
30378;SDS011;17168;49.164;9.060;2023-08-06T14:59:27;1.23;;;0.35;;
30378;SDS011;17168;49.164;9.060;2023-08-06T15:01:59;1.55;;;0.55;;
30378;SDS011;17168;49.164;9.060;2023-08-06T15:04:31;1.25;;;0.50;;
30378;SDS011;17168;49.164;9.060;2023-08-06T15:07:03;0.80;;;0.45;;
30378;SDS011;17168;49.164;9.060;2023-08-06T15:09:38;0.63;;;0.38;;
30378;SDS011;17168;49.164;9.060;2023-08-06T15:12:30;1.63;;;0.70;;
30378;SDS011;17168;49.164;9.060;2023-08-06T15:15:03;1.40;;;0.47;;
30378;SDS011;17168;49.164;9.060;2023-08-06T15:17:37;1.13;;;0.35;;
30378;SDS011;17168;49.164;9.060;2023-08-06T15:20:09;2.08;;;0.70;;
30378;SDS011;17168;49.164;9.060;2023-08-06T15:22:43;3.13;;;0.50;;
30378;SDS011;17168;49.164;9.060;2023-08-06T15:25:18;0.32;;;0.13;;